Time;durP1;ratioP1;P1;durP2;ratioP2;P2;SDS_P1;SDS_P2;PMS_P1;PMS_P2;Temp;Humidity;BMP_temperature;BMP_pressure;BME280_temperature;BME280_humidity;BME280_pressure;Samples;Min_cycle;Max_cycle;Signal;HPM_P1;HPM_P2
2022/10/04 00:00:35;;;;;;;1.17;1.08;;;24.80;57.80;;;;;;4950042;29;20118;-65
2022/10/04 00:03:17;;;;;;;1.00;1.00;;;24.90;58.10;;;;;;4934238;29;20042;-66
2022/10/04 00:05:51;;;;;;;1.13;1.00;;;24.80;58.20;;;;;;5007813;28;20064;-64
2022/10/04 00:08:26;;;;;;;1.15;1.00;;;24.80;58.20;;;;;;5030880;28;20417;-66
2022/10/04 00:11:05;;;;;;;1.35;1.20;;;24.90;58.40;;;;;;5029220;28;20040;-66
2022/10/04 00:13:34;;;;;;;1.42;1.00;;;24.80;58.30;;;;;;5031210;28;20075;-66
2022/10/04 00:16:01;;;;;;;1.30;1.10;;;24.70;58.20;;;;;;5029370;28;20450;-66
2022/10/04 00:18:29;;;;;;;0.90;0.90;;;24.80;58.20;;;;;;5030902;28;20493;-66
2022/10/04 00:20:59;;;;;;;1.17;1.08;;;24.80;58.20;;;;;;5030845;28;20043;-66
2022/10/04 00:23:36;;;;;;;1.83;1.15;;;24.70;58.20;;;;;;4997255;28;20483;-66
2022/10/04 00:26:14;;;;;;;1.17;1.08;;;24.80;58.20;;;;;;5011044;28;20060;-66
2022/10/04 00:28:42;;;;;;;1.85;1.02;;;24.80;58.20;;;;;;5019132;28;20033;-65
2022/10/04 00:31:13;;;;;;;1.10;1.00;;;24.70;58.20;;;;;;4995147;28;20125;-66
2022/10/04 00:33:43;;;;;;;1.52;0.93;;;24.60;58.10;;;;;;5030680;28;20509;-66
2022/10/04 00:36:24;;;;;;;1.00;1.00;;;24.60;58.20;;;;;;5030692;28;20112;-65
2022/10/04 00:39:08;;;;;;;1.17;1.08;;;24.70;58.20;;;;;;5030640;28;20547;-65
2022/10/04 00:41:47;;;;;;;1.52;1.33;;;24.50;58.20;;;;;;5030806;28;20025;-66
2022/10/04 00:44:33;;;;;;;0.90;0.90;;;24.50;58.20;;;;;;5030562;28;20037;-66
2022/10/04 00:47:22;;;;;;;2.53;0.98;;;24.50;58.20;;;;;;5011325;28;20044;-65
2022/10/04 00:49:55;;;;;;;2.63;1.15;;;24.60;58.30;;;;;;5007652;28;20522;-65
2022/10/04 00:52:29;;;;;;;2.28;1.20;;;24.50;58.20;;;;;;5008193;28;20136;-66
2022/10/04 00:55:01;;;;;;;4.03;1.27;;;24.50;58.20;;;;;;5008302;28;20491;-66
2022/10/04 00:57:41;;;;;;;2.72;1.13;;;24.50;58.30;;;;;;5007499;28;20065;-65
2022/10/04 01:00:15;;;;;;;1.50;1.20;;;24.60;58.20;;;;;;4993551;28;20614;-66
2022/10/04 01:02:44;;;;;;;1.83;1.00;;;24.60;58.10;;;;;;5008309;28;20402;-66
2022/10/04 01:05:13;;;;;;;1.05;1.00;;;24.60;58.20;;;;;;5008092;28;20094;-65
2022/10/04 01:08:03;;;;;;;1.30;1.20;;;24.60;58.10;;;;;;4991875;28;20069;-66
2022/10/04 01:11:02;;;;;;;1.88;1.20;;;24.60;58.20;;;;;;4995076;28;20060;-66
2022/10/04 01:13:36;;;;;;;2.10;1.23;;;24.60;58.20;;;;;;5008999;28;20137;-66
2022/10/04 01:16:17;;;;;;;2.42;1.40;;;24.50;58.10;;;;;;5012179;28;20038;-66
2022/10/04 01:18:43;;;;;;;1.20;1.10;;;24.50;58.20;;;;;;4975919;28;20081;-64
2022/10/04 01:21:18;;;;;;;1.50;1.40;;;24.60;58.20;;;;;;5024118;28;20525;-65
2022/10/04 01:23:52;;;;;;;2.35;1.05;;;24.40;58.20;;;;;;5014305;28;20041;-65
2022/10/04 01:26:33;;;;;;;1.27;1.17;;;24.50;58.30;;;;;;5023832;28;20033;-66
2022/10/04 01:29:10;;;;;;;4.05;1.10;;;24.40;58.20;;;;;;5034131;28;20044;-65
2022/10/04 01:31:45;;;;;;;1.65;1.48;;;24.40;58.40;;;;;;5033921;28;20483;-66
2022/10/04 01:34:17;;;;;;;2.15;1.30;;;24.40;58.30;;;;;;5033868;28;20029;-65
2022/10/04 01:36:46;;;;;;;1.77;1.30;;;24.40;58.30;;;;;;5033731;28;20121;-65
2022/10/04 01:39:14;;;;;;;1.40;1.10;;;24.40;58.30;;;;;;5032639;28;20044;-66
2022/10/04 01:41:46;;;;;;;1.30;1.20;;;24.30;58.30;;;;;;5014965;28;20038;-65
2022/10/04 01:44:35;;;;;;;1.55;1.13;;;24.30;58.40;;;;;;5033980;28;20026;-66
2022/10/04 01:47:13;;;;;;;1.98;1.38;;;24.30;58.30;;;;;;5010899;28;20423;-64
2022/10/04 01:49:42;;;;;;;4.20;1.20;;;24.30;58.30;;;;;;4995021;28;20054;-65
2022/10/04 01:52:22;;;;;;;1.98;1.20;;;24.30;58.20;;;;;;4994833;28;20064;-65
2022/10/04 01:55:01;;;;;;;3.97;1.35;;;24.40;58.20;;;;;;4994374;28;20131;-66
2022/10/04 01:57:36;;;;;;;1.85;1.40;;;24.30;58.20;;;;;;5010409;28;20400;-65
2022/10/04 02:00:07;;;;;;;2.10;1.52;;;24.40;58.10;;;;;;5011480;28;20026;-66
2022/10/04 02:02:39;;;;;;;1.30;1.20;;;24.40;58.10;;;;;;4994667;28;20422;-65
2022/10/04 02:05:10;;;;;;;2.60;1.20;;;24.40;58.10;;;;;;4952075;29;20142;-65
2022/10/04 02:07:38;;;;;;;3.63;1.55;;;24.50;58.10;;;;;;4951690;29;20135;-65
2022/10/04 02:10:10;;;;;;;3.60;1.58;;;24.40;57.90;;;;;;4951814;29;20130;-65
2022/10/04 02:12:42;;;;;;;2.92;1.33;;;24.40;57.90;;;;;;4933699;29;20146;-65
2022/10/04 02:15:10;;;;;;;1.37;1.27;;;24.40;57.80;;;;;;4909707;29;20052;-64
2022/10/04 02:17:43;;;;;;;3.95;1.23;;;24.40;57.80;;;;;;4948146;28;20379;-66
2022/10/04 02:20:17;;;;;;;1.80;1.58;;;24.40;57.80;;;;;;4990916;28;20042;-66
2022/10/04 02:22:47;;;;;;;1.17;1.15;;;24.40;57.90;;;;;;4991205;28;20052;-66
2022/10/04 02:25:17;;;;;;;2.95;1.70;;;24.40;57.90;;;;;;4991252;28;20092;-65
2022/10/04 02:27:43;;;;;;;1.52;1.42;;;24.40;57.90;;;;;;4990932;28;20093;-65
2022/10/04 02:30:12;;;;;;;4.53;2.03;;;24.40;57.90;;;;;;4990771;28;20085;-66
2022/10/04 02:35:35;;;;;;;3.55;1.95;;;24.20;58.00;;;;;;4990682;28;20049;-65
2022/10/04 02:38:14;;;;;;;1.63;1.42;;;24.30;58.10;;;;;;4989900;28;20047;-64
2022/10/04 02:40:52;;;;;;;2.05;1.77;;;24.20;58.00;;;;;;4990302;28;20042;-64
2022/10/04 02:43:27;;;;;;;1.67;1.58;;;24.20;58.10;;;;;;5024978;28;20052;-66
2022/10/04 02:46:32;;;;;;;4.28;2.08;;;24.20;58.10;;;;;;5032728;28;20049;-65
2022/10/04 02:49:07;;;;;;;4.00;1.95;;;24.20;58.10;;;;;;4971273;28;20412;-64
2022/10/04 02:51:43;;;;;;;1.98;1.70;;;24.20;58.10;;;;;;4970621;28;20042;-66
2022/10/04 02:54:21;;;;;;;2.55;1.92;;;24.20;58.10;;;;;;4954556;28;20043;-66
2022/10/04 02:56:52;;;;;;;2.67;1.42;;;24.30;58.20;;;;;;4971152;28;20049;-65
2022/10/04 02:59:18;;;;;;;5.43;2.03;;;24.20;58.20;;;;;;4954996;28;20416;-66
2022/10/04 03:01:58;;;;;;;3.05;1.50;;;24.20;58.10;;;;;;4938898;28;20051;-67
2022/10/04 03:04:33;;;;;;;1.83;1.50;;;24.20;58.00;;;;;;4970775;28;20142;-65
2022/10/04 03:07:03;;;;;;;1.60;1.33;;;24.20;58.00;;;;;;4968913;28;20131;-66
2022/10/04 03:09:29;;;;;;;2.70;1.60;;;24.30;58.10;;;;;;4970643;28;20049;-65
2022/10/04 03:11:56;;;;;;;1.75;1.42;;;24.20;58.00;;;;;;4970923;28;20071;-66
2022/10/04 03:14:27;;;;;;;2.75;1.80;;;24.20;58.10;;;;;;4970429;28;20163;-66
2022/10/04 03:16:55;;;;;;;2.70;1.30;;;24.20;58.00;;;;;;4970538;28;20428;-66
2022/10/04 03:19:25;;;;;;;3.42;1.50;;;24.10;58.00;;;;;;4985300;28;20463;-65
2022/10/04 03:21:54;;;;;;;4.68;1.50;;;24.20;58.00;;;;;;4993465;28;20042;-65
2022/10/04 03:24:34;;;;;;;2.42;1.27;;;24.10;58.00;;;;;;5012377;28;20093;-66
2022/10/04 03:27:03;;;;;;;3.80;1.50;;;24.10;58.10;;;;;;5010715;28;20065;-65
2022/10/04 03:29:32;;;;;;;1.98;1.50;;;24.10;58.10;;;;;;5012015;28;20100;-66
2022/10/04 03:32:02;;;;;;;1.95;1.50;;;24.10;58.20;;;;;;5010398;28;20060;-66
2022/10/04 03:34:37;;;;;;;1.83;1.17;;;24.00;58.10;;;;;;5012162;28;20079;-65
2022/10/04 03:37:13;;;;;;;2.20;1.48;;;24.20;57.90;;;;;;4993214;28;20041;-66
2022/10/04 03:39:48;;;;;;;0.82;0.82;;;24.30;57.70;;;;;;5027281;28;20033;-66
2022/10/04 03:42:20;;;;;;;2.13;1.60;;;24.30;57.40;;;;;;5012080;28;20033;-66
2022/10/04 03:44:49;;;;;;;1.73;1.52;;;24.30;57.30;;;;;;5012134;28;20427;-65
2022/10/04 03:47:45;;;;;;;1.25;1.10;;;24.30;57.40;;;;;;5011667;28;20060;-66
2022/10/04 03:50:36;;;;;;;3.72;1.08;;;24.20;57.50;;;;;;4968947;28;20061;-64
2022/10/04 03:53:10;;;;;;;1.63;1.52;;;24.30;57.70;;;;;;4953970;28;20054;-65
2022/10/04 03:55:42;;;;;;;2.88;1.33;;;24.30;57.70;;;;;;4970115;28;20051;-64
2022/10/04 03:58:15;;;;;;;1.50;1.40;;;24.20;57.60;;;;;;4953719;28;20467;-66
2022/10/04 04:00:52;;;;;;;1.85;1.67;;;24.20;57.70;;;;;;4953540;28;20593;-66
2022/10/04 04:03:20;;;;;;;2.40;1.75;;;24.20;57.70;;;;;;4969653;28;20043;-66
2022/10/04 04:05:52;;;;;;;3.85;1.52;;;24.20;57.80;;;;;;4969409;28;20047;-65
2022/10/04 04:08:37;;;;;;;5.20;2.20;;;24.20;57.90;;;;;;4953696;28;20117;-66
2022/10/04 04:11:06;;;;;;;2.85;1.83;;;24.20;57.70;;;;;;4970053;28;20109;-66
2022/10/04 04:13:45;;;;;;;2.80;1.70;;;24.10;57.50;;;;;;4966953;28;20050;-66
2022/10/04 04:16:13;;;;;;;3.33;1.70;;;24.30;57.50;;;;;;4969825;28;20043;-65
2022/10/04 04:18:42;;;;;;;1.92;1.45;;;24.20;57.30;;;;;;4953518;28;20475;-65
2022/10/04 04:21:09;;;;;;;3.47;1.25;;;24.20;57.40;;;;;;4975511;28;20049;-65
2022/10/04 04:23:43;;;;;;;2.33;1.50;;;24.30;57.60;;;;;;4988086;28;20042;-65
2022/10/04 04:26:27;;;;;;;3.08;1.98;;;24.20;52.00;;;;;;4991838;28;20038;-65
2022/10/04 04:29:05;;;;;;;2.53;1.48;;;24.40;56.20;;;;;;5011239;28;20090;-64
2022/10/04 04:31:59;;;;;;;2.10;1.80;;;24.60;57.90;;;;;;5010867;28;20046;-65
2022/10/04 04:34:29;;;;;;;3.65;1.92;;;24.70;57.50;;;;;;5008903;28;20146;-65
2022/10/04 04:37:01;;;;;;;2.15;1.60;;;24.80;57.50;;;;;;5010349;28;20120;-65
2022/10/04 04:39:39;;;;;;;6.38;2.15;;;24.70;57.50;;;;;;5010240;28;20037;-65
2022/10/04 04:42:32;;;;;;;2.20;1.45;;;24.90;55.60;;;;;;5008947;28;20049;-64
2022/10/04 04:45:02;;;;;;;7.10;1.92;;;24.80;52.50;;;;;;5013629;28;20085;-65
2022/10/04 04:47:46;;;;;;;2.95;1.90;;;24.90;52.60;;;;;;5013199;28;20038;-65
2022/10/04 04:50:15;;;;;;;1.77;1.27;;;25.00;53.60;;;;;;5013891;28;20476;-64
2022/10/04 04:53:06;;;;;;;3.05;1.63;;;25.00;52.00;;;;;;5014089;28;20072;-66
2022/10/04 04:55:39;;;;;;;2.80;1.90;;;25.00;51.80;;;;;;4972388;28;20047;-66
2022/10/04 04:58:07;;;;;;;0.30;0.30;;;25.00;50.70;;;;;;4972566;28;20046;-67
2022/10/04 05:00:37;;;;;;;0.35;0.35;;;25.10;57.60;;;;;;4972369;28;20042;-67
2022/10/04 05:03:07;;;;;;;0.63;0.63;;;25.20;55.50;;;;;;4955939;28;20042;-67
2022/10/04 05:05:36;;;;;;;2.88;1.73;;;25.30;53.60;;;;;;4956676;28;20031;-65
2022/10/04 05:08:21;;;;;;;1.70;1.60;;;25.30;49.40;;;;;;4972993;28;20195;-65
2022/10/04 05:10:49;;;;;;;1.65;1.48;;;25.20;51.50;;;;;;4955742;28;20053;-65
2022/10/04 05:13:18;;;;;;;1.55;1.45;;;25.30;53.20;;;;;;4972842;28;20117;-65
2022/10/04 05:15:45;;;;;;;2.22;1.42;;;25.30;52.60;;;;;;4956790;28;20042;-65
2022/10/04 05:18:27;;;;;;;6.03;2.05;;;25.30;52.70;;;;;;4972637;28;20066;-65
2022/10/04 05:20:57;;;;;;;4.53;1.77;;;25.10;52.90;;;;;;4972646;28;20074;-64
2022/10/04 05:23:23;;;;;;;5.93;2.03;;;25.00;53.20;;;;;;4971994;28;20324;-64
2022/10/04 05:26:10;;;;;;;7.63;1.90;;;25.10;53.50;;;;;;4971912;28;20042;-65
2022/10/04 05:28:36;;;;;;;4.68;1.92;;;25.00;54.00;;;;;;4950139;29;20043;-65
2022/10/04 05:31:36;;;;;;;5.75;1.52;;;24.90;54.00;;;;;;4952224;29;20054;-65
2022/10/04 05:34:16;;;;;;;2.40;1.60;;;24.80;54.30;;;;;;4933533;28;20085;-65
2022/10/04 05:36:45;;;;;;;3.03;1.95;;;24.70;55.10;;;;;;4981389;28;20063;-65
2022/10/04 05:39:45;;;;;;;3.20;2.50;;;24.60;55.40;;;;;;4981881;28;20045;-65
2022/10/04 05:42:44;;;;;;;6.38;2.35;;;24.60;55.40;;;;;;4934050;28;20585;-65
2022/10/04 05:45:48;;;;;;;4.07;1.92;;;24.80;55.30;;;;;;4932812;29;20480;-64
2022/10/04 05:48:15;;;;;;;3.22;1.95;;;24.80;55.20;;;;;;4876659;29;20127;-65
2022/10/04 05:50:42;;;;;;;6.45;2.40;;;24.90;55.20;;;;;;4876953;29;20101;-66
2022/10/04 05:53:48;;;;;;;4.22;1.92;;;25.00;55.60;;;;;;4876600;29;20359;-65
2022/10/04 05:56:58;;;;;;;3.80;2.53;;;25.00;55.90;;;;;;4838350;29;20046;-64
2022/10/04 05:59:46;;;;;;;7.10;2.83;;;24.90;56.10;;;;;;4795126;29;20224;-66
2022/10/04 06:02:24;;;;;;;3.28;2.42;;;24.90;56.80;;;;;;4802940;29;20047;-65
2022/10/04 06:05:16;;;;;;;4.35;2.65;;;25.00;57.40;;;;;;4786055;29;20517;-64
2022/10/04 06:07:57;;;;;;;3.33;1.67;;;25.00;59.90;;;;;;4766488;30;20214;-66
2022/10/04 06:10:41;;;;;;;5.82;1.52;;;25.00;58.20;;;;;;4767400;30;20060;-65
2022/10/04 06:13:07;;;;;;;4.80;2.22;;;25.10;58.10;;;;;;4767258;29;20043;-65
2022/10/04 06:15:57;;;;;;;2.08;1.83;;;25.00;57.60;;;;;;4803271;29;20374;-65
2022/10/04 06:18:38;;;;;;;3.88;1.77;;;25.10;57.50;;;;;;4804577;29;20470;-65
2022/10/04 06:21:16;;;;;;;1.77;1.35;;;25.00;57.60;;;;;;4836166;29;20042;-66
2022/10/04 06:23:51;;;;;;;1.50;1.30;;;25.00;57.70;;;;;;4843289;29;20056;-68
2022/10/04 06:26:25;;;;;;;1.75;1.27;;;25.20;57.90;;;;;;4866926;29;20068;-69
2022/10/04 06:28:59;;;;;;;3.33;1.42;;;25.20;58.20;;;;;;4952398;28;20598;-66
2022/10/04 06:32:02;;;;;;;2.38;1.60;;;25.20;57.90;;;;;;4952043;28;20547;-66
2022/10/04 06:35:00;;;;;;;2.33;1.60;;;25.20;57.00;;;;;;4932964;29;20118;-66
2022/10/04 06:37:32;;;;;;;1.83;1.02;;;25.20;53.80;;;;;;5004320;28;20053;-67
2022/10/04 06:40:13;;;;;;;1.55;0.93;;;25.10;55.30;;;;;;5010411;28;20030;-66
2022/10/04 06:42:53;;;;;;;0.68;0.68;;;25.10;54.20;;;;;;5010007;28;20533;-66
2022/10/04 06:45:32;;;;;;;5.25;1.30;;;25.20;53.60;;;;;;5010072;28;20145;-65
2022/10/04 06:48:25;;;;;;;1.55;0.95;;;25.20;52.10;;;;;;5009893;28;20065;-67
2022/10/04 06:50:54;;;;;;;1.35;1.23;;;25.20;51.90;;;;;;5029110;28;20080;-66
2022/10/04 06:53:43;;;;;;;1.33;1.23;;;25.20;51.90;;;;;;5029787;28;20056;-66
2022/10/04 06:56:39;;;;;;;1.30;1.20;;;25.20;49.40;;;;;;4951885;29;20053;-67
2022/10/04 06:59:37;;;;;;;4.72;1.10;;;25.00;49.80;;;;;;4897895;29;20497;-67
2022/10/04 07:02:45;;;;;;;2.50;1.00;;;25.00;49.80;;;;;;4874264;29;20063;-69
2022/10/04 07:05:37;;;;;;;4.82;1.45;;;25.00;51.40;;;;;;4777218;30;20048;-65
2022/10/04 07:08:29;;;;;;;1.60;1.10;;;25.00;51.90;;;;;;4766606;30;20464;-66
2022/10/04 07:11:28;;;;;;;1.38;0.80;;;25.00;51.80;;;;;;4766746;30;20467;-68
2022/10/04 07:14:01;;;;;;;2.33;0.93;;;25.10;51.40;;;;;;4766446;30;20732;-68
2022/10/04 07:16:36;;;;;;;4.03;1.33;;;25.20;50.80;;;;;;4766374;30;20055;-66
2022/10/04 07:19:23;;;;;;;2.78;0.90;;;25.00;49.40;;;;;;4766394;30;20349;-68
2022/10/04 07:21:55;;;;;;;5.43;1.00;;;25.00;51.00;;;;;;4766464;30;20826;-68
2022/10/04 07:24:46;;;;;;;1.90;0.88;;;25.00;52.00;;;;;;4751197;30;20075;-69
2022/10/04 07:27:33;;;;;;;1.63;0.88;;;25.00;52.00;;;;;;4766146;30;20136;-67
2022/10/04 07:30:05;;;;;;;3.55;0.95;;;25.00;51.60;;;;;;4766265;30;20140;-69
2022/10/04 07:32:37;;;;;;;2.87;1.20;;;24.90;51.90;;;;;;4781923;29;20042;-67
2022/10/04 07:35:32;;;;;;;2.70;1.20;;;25.00;52.10;;;;;;4844032;29;20136;-69
2022/10/04 07:38:16;;;;;;;5.63;1.10;;;25.00;52.30;;;;;;4865368;29;20052;-67
2022/10/04 07:41:02;;;;;;;2.92;1.45;;;25.00;51.60;;;;;;4955371;28;20035;-68
2022/10/04 07:43:31;;;;;;;2.42;0.75;;;25.10;52.00;;;;;;5031544;28;20045;-68
2022/10/04 07:46:36;;;;;;;1.08;0.93;;;25.00;51.60;;;;;;5031718;28;20033;-67
2022/10/04 07:49:02;;;;;;;1.88;0.98;;;25.00;50.80;;;;;;5031599;28;20087;-69
2022/10/04 07:51:46;;;;;;;5.35;1.67;;;25.10;52.40;;;;;;5031558;28;20505;-70
2022/10/04 07:54:29;;;;;;;0.75;0.45;;;25.20;48.50;;;;;;5031530;28;20049;-69
2022/10/04 07:57:10;;;;;;;0.63;0.63;;;25.00;52.10;;;;;;5029017;28;20107;-69
2022/10/04 07:59:39;;;;;;;3.72;1.30;;;25.00;52.80;;;;;;5028717;28;20379;-70
2022/10/04 08:02:11;;;;;;;2.30;0.98;;;25.00;51.10;;;;;;5028913;28;20059;-69
2022/10/04 08:04:57;;;;;;;0.95;0.90;;;25.00;51.50;;;;;;5027990;28;20668;-68
2022/10/04 08:08:10;;;;;;;1.40;1.00;;;25.00;50.90;;;;;;5031303;28;20071;-68
2022/10/04 08:10:42;;;;;;;1.38;1.02;;;25.00;49.90;;;;;;4950373;29;20697;-69
2022/10/04 08:13:38;;;;;;;0.30;0.30;;;25.00;50.00;;;;;;4950025;29;20037;-70
2022/10/04 08:16:16;;;;;;;0.35;0.35;;;25.00;54.30;;;;;;4950546;29;20049;-70
2022/10/04 08:19:07;;;;;;;0.63;0.63;;;25.00;54.30;;;;;;4950188;29;20043;-69
2022/10/04 08:21:57;;;;;;;2.38;1.25;;;25.10;54.20;;;;;;4950458;29;20039;-69
2022/10/04 08:24:42;;;;;;;8.38;1.70;;;25.40;54.90;;;;;;4950581;29;20111;-68
2022/10/04 08:27:31;;;;;;;1.67;1.00;;;25.30;57.00;;;;;;4950418;29;20106;-68
2022/10/04 08:30:09;;;;;;;0.30;0.30;;;25.50;57.90;;;;;;4934236;29;20123;-67
2022/10/04 08:32:50;;;;;;;2.67;1.55;;;25.60;57.40;;;;;;4950500;29;20075;-67
2022/10/04 08:35:33;;;;;;;1.17;1.10;;;25.70;59.40;;;;;;4950392;29;20477;-68
2022/10/04 08:38:20;;;;;;;1.20;1.20;;;25.60;46.70;;;;;;4950388;29;20151;-68
2022/10/04 08:40:48;;;;;;;1.20;1.08;;;25.60;42.10;;;;;;4950075;29;20047;-67
2022/10/04 08:43:29;;;;;;;1.15;1.10;;;25.50;50.10;;;;;;4950438;29;20032;-66
2022/10/04 08:46:04;;;;;;;1.35;0.80;;;25.40;49.70;;;;;;4963688;28;20053;-68
2022/10/04 08:49:08;;;;;;;3.22;1.98;;;25.50;50.10;;;;;;5030865;28;20037;-67
2022/10/04 08:52:15;;;;;;;0.40;0.40;;;25.40;53.00;;;;;;5030231;28;20038;-69
2022/10/04 08:55:13;;;;;;;0.60;0.40;;;25.40;54.70;;;;;;5030112;28;20040;-71
2022/10/04 08:57:42;;;;;;;0.82;0.82;;;25.60;53.50;;;;;;5012246;28;20104;-70
2022/10/04 09:00:30;;;;;;;1.13;1.10;;;25.60;54.60;;;;;;5028764;28;20044;-70
2022/10/04 09:03:14;;;;;;;1.40;1.25;;;25.60;45.60;;;;;;5029726;28;20041;-69
2022/10/04 09:06:15;;;;;;;2.45;1.25;;;25.60;44.90;;;;;;5030007;28;20048;-68
2022/10/04 09:09:18;;;;;;;1.40;1.27;;;25.60;48.80;;;;;;5030491;28;20037;-68
2022/10/04 09:12:07;;;;;;;1.55;1.45;;;25.60;44.80;;;;;;5029694;28;20033;-69
2022/10/04 09:14:50;;;;;;;1.45;1.20;;;25.30;52.70;;;;;;5030747;28;20080;-67
2022/10/04 09:17:40;;;;;;;1.47;1.30;;;25.40;54.00;;;;;;5030413;28;20045;-66
2022/10/04 09:20:21;;;;;;;1.38;1.00;;;25.30;54.40;;;;;;5030022;28;20400;-68
2022/10/04 09:23:05;;;;;;;1.27;0.90;;;25.40;53.10;;;;;;5029742;28;20029;-69
2022/10/04 09:25:40;;;;;;;3.10;0.90;;;25.50;54.80;;;;;;5030280;28;20119;-69
2022/10/04 09:28:44;;;;;;;4.53;1.65;;;25.60;53.40;;;;;;5030611;28;20037;-66
2022/10/04 09:31:16;;;;;;;1.20;1.10;;;25.60;52.10;;;;;;4972049;28;20043;-70
2022/10/04 09:34:11;;;;;;;1.10;1.00;;;25.30;45.20;;;;;;4956297;28;20058;-68
2022/10/04 09:36:48;;;;;;;1.30;1.17;;;25.40;50.90;;;;;;4895839;29;20052;-69
2022/10/04 09:39:34;;;;;;;4.40;1.33;;;25.30;46.70;;;;;;4880501;29;20421;-69
2022/10/04 09:42:06;;;;;;;13.45;2.53;;;25.30;55.60;;;;;;4896115;29;20049;-68
2022/10/04 09:45:20;;;;;;;1.50;1.02;;;25.90;59.90;;;;;;4896017;29;20540;-68
2022/10/04 09:48:07;;;;;;;1.10;0.95;;;26.60;67.60;;;;;;4877219;29;20059;-67
2022/10/04 09:50:51;;;;;;;1.55;1.45;;;27.10;61.30;;;;;;4858538;29;20145;-68
2022/10/04 09:53:46;;;;;;;1.63;1.13;;;26.90;51.40;;;;;;4858570;29;20057;-68
2022/10/04 09:56:38;;;;;;;1.00;0.50;;;26.70;52.90;;;;;;4858804;29;20053;-69
2022/10/04 09:59:07;;;;;;;2.55;1.52;;;26.50;56.70;;;;;;4843786;29;20404;-68
2022/10/04 10:02:12;;;;;;;1.42;1.02;;;26.60;55.60;;;;;;4837576;29;20045;-68
2022/10/04 10:04:40;;;;;;;3.20;1.05;;;26.70;58.90;;;;;;4846083;29;20060;-68
2022/10/04 10:07:15;;;;;;;4.68;1.45;;;26.70;59.50;;;;;;4892962;29;20083;-68
2022/10/04 10:16:21;;;;;;;1.15;1.10;;;26.90;53.70;;;;;;4914707;29;20055;-67
2022/10/04 10:18:57;;;;;;;1.35;1.17;;;26.70;43.40;;;;;;4914567;29;20075;-67
2022/10/04 10:21:32;;;;;;;5.15;1.20;;;26.80;50.70;;;;;;4914514;29;20048;-66
2022/10/04 10:24:22;;;;;;;3.85;1.02;;;26.50;49.20;;;;;;4928717;29;20055;-68
2022/10/04 10:26:55;;;;;;;0.88;0.82;;;26.30;39.60;;;;;;4960259;28;20074;-68
2022/10/04 10:29:40;;;;;;;0.98;0.85;;;26.30;45.00;;;;;;5013336;28;20042;-67
2022/10/04 10:32:37;;;;;;;0.30;0.30;;;26.20;50.80;;;;;;5013294;28;20121;-68
2022/10/04 10:35:51;;;;;;;0.93;0.63;;;26.30;53.80;;;;;;5010989;28;20042;-68
2022/10/04 10:38:49;;;;;;;1.58;1.35;;;26.70;54.40;;;;;;4951578;29;20040;-68
2022/10/04 10:41:34;;;;;;;0.88;0.88;;;26.80;54.00;;;;;;4951691;28;20082;-69
2022/10/04 10:44:20;;;;;;;1.13;0.65;;;27.00;58.10;;;;;;4952208;29;20523;-69
2022/10/04 10:46:57;;;;;;;0.20;0.20;;;27.20;59.10;;;;;;4951930;29;20580;-69
2022/10/04 10:49:39;;;;;;;1.92;1.00;;;27.30;59.60;;;;;;4951851;29;20640;-70
2022/10/04 10:52:29;;;;;;;0.93;0.93;;;27.20;44.80;;;;;;4951678;29;20195;-68
2022/10/04 10:54:56;;;;;;;0.90;0.90;;;27.10;54.00;;;;;;4971093;28;20031;-69
2022/10/04 10:57:34;;;;;;;3.75;1.52;;;26.90;41.60;;;;;;4959122;28;20039;-68
2022/10/04 11:00:20;;;;;;;0.90;0.90;;;26.90;50.00;;;;;;4954658;28;20226;-69
2022/10/04 11:03:22;;;;;;;0.57;0.57;;;26.80;45.80;;;;;;4970700;28;20039;-69
2022/10/04 11:06:06;;;;;;;1.20;1.10;;;26.60;49.90;;;;;;4970850;28;20137;-69
2022/10/04 11:08:35;;;;;;;0.63;0.60;;;26.50;49.00;;;;;;4970695;28;20039;-69
2022/10/04 11:11:40;;;;;;;0.80;0.68;;;26.60;52.40;;;;;;4974083;28;20571;-70
2022/10/04 11:14:37;;;;;;;1.83;0.82;;;26.60;51.30;;;;;;5030984;28;20034;-66
2022/10/04 11:17:15;;;;;;;1.10;1.00;;;26.60;51.60;;;;;;5032165;28;20095;-67
2022/10/04 11:20:02;;;;;;;1.17;1.00;;;26.60;50.70;;;;;;5032119;28;20042;-67
2022/10/04 11:23:13;;;;;;;1.58;1.20;;;26.60;52.50;;;;;;5014250;28;20034;-68
2022/10/04 11:25:51;;;;;;;1.63;0.52;;;26.70;52.50;;;;;;5011189;28;20134;-69
2022/10/04 11:28:35;;;;;;;5.78;1.20;;;26.60;51.80;;;;;;5011906;28;20065;-68
2022/10/04 11:31:31;;;;;;;3.92;0.90;;;26.70;52.80;;;;;;5012433;28;20121;-67
2022/10/04 11:34:21;;;;;;;0.60;0.60;;;26.40;48.60;;;;;;4956908;28;20042;-69
2022/10/04 11:37:11;;;;;;;2.30;0.90;;;26.60;48.00;;;;;;4970129;28;20052;-68
2022/10/04 11:39:39;;;;;;;4.18;1.20;;;26.40;44.80;;;;;;4913010;29;20067;-68
2022/10/04 11:42:06;;;;;;;1.20;0.82;;;26.40;51.30;;;;;;4896395;29;20047;-68
2022/10/04 11:44:51;;;;;;;2.40;0.85;;;26.30;54.90;;;;;;4912919;29;20608;-67
2022/10/04 11:47:32;;;;;;;1.30;0.98;;;26.40;57.60;;;;;;4912730;29;20079;-67
2022/10/04 11:50:27;;;;;;;2.60;1.23;;;26.40;55.80;;;;;;4881818;29;20051;-68
2022/10/04 11:53:24;;;;;;;0.73;0.73;;;26.40;54.40;;;;;;4911848;29;20061;-66
2022/10/04 11:55:53;;;;;;;1.00;0.90;;;26.40;53.40;;;;;;4921498;29;20036;-65
2022/10/04 11:58:48;;;;;;;3.92;1.10;;;26.30;52.60;;;;;;4912803;29;20102;-66
2022/10/04 12:01:58;;;;;;;0.77;0.73;;;26.30;52.00;;;;;;4912833;29;20044;-67
2022/10/04 12:04:27;;;;;;;0.68;0.68;;;26.20;51.60;;;;;;4912561;29;20064;-66
2022/10/04 12:07:22;;;;;;;1.10;0.90;;;26.30;51.30;;;;;;4912878;29;20067;-67
2022/10/04 12:09:55;;;;;;;1.52;0.80;;;26.20;50.80;;;;;;4823046;29;20522;-66
2022/10/04 12:12:39;;;;;;;;;;;26.30;50.00;;;;;;4865785;29;20045;-63
2022/10/04 12:15:27;;;;;;;1.25;1.08;;;26.30;49.50;;;;;;4857579;29;19941;-65
2022/10/04 12:18:27;;;;;;;2.45;0.88;;;26.30;48.80;;;;;;4937086;29;20129;-65
2022/10/04 12:20:53;;;;;;;1.63;0.82;;;26.20;48.30;;;;;;4950466;29;20047;-65
2022/10/04 12:23:47;;;;;;;2.08;0.95;;;26.20;47.70;;;;;;4950689;29;20058;-65
2022/10/04 12:26:34;;;;;;;1.00;0.60;;;26.20;47.40;;;;;;4950626;29;20709;-66
2022/10/04 12:29:27;;;;;;;0.40;0.40;;;26.30;47.50;;;;;;4949907;29;20507;-64
2022/10/04 12:32:09;;;;;;;3.03;0.70;;;26.20;48.10;;;;;;4930848;29;20050;-67
2022/10/04 12:34:52;;;;;;;2.15;0.73;;;26.20;47.40;;;;;;4930993;29;20047;-66
2022/10/04 12:37:22;;;;;;;;;;;26.10;46.80;;;;;;4915037;29;20083;-65
2022/10/04 12:40:24;;;;;;;0.50;0.50;;;26.10;46.80;;;;;;4929529;29;19976;-65
2022/10/04 12:42:53;;;;;;;0.80;0.80;;;26.10;46.80;;;;;;4930941;29;20520;-65
2022/10/04 12:45:40;;;;;;;2.85;0.80;;;26.10;46.80;;;;;;4931541;29;20469;-66
2022/10/04 12:48:42;;;;;;;0.70;0.70;;;26.10;46.80;;;;;;5022583;28;20048;-65
2022/10/04 12:51:13;;;;;;;1.08;0.82;;;26.10;46.90;;;;;;4949346;29;20039;-67
2022/10/04 12:54:01;;;;;;;0.73;0.73;;;26.10;47.00;;;;;;4950485;29;20039;-66
2022/10/04 12:56:44;;;;;;;1.42;0.75;;;26.10;45.40;;;;;;4949821;29;20094;-65
2022/10/04 12:59:19;;;;;;;1.00;0.60;;;26.10;45.60;;;;;;4945161;29;20039;-66
2022/10/04 13:02:03;;;;;;;0.82;0.70;;;26.00;46.10;;;;;;4950303;29;20032;-67
2022/10/04 13:04:54;;;;;;;0.70;0.70;;;26.00;46.10;;;;;;4950670;28;20090;-67
2022/10/04 13:07:48;;;;;;;0.70;0.70;;;26.00;45.60;;;;;;4954352;29;20039;-67
2022/10/04 13:10:32;;;;;;;1.65;0.65;;;25.90;44.70;;;;;;4953856;29;20043;-67
2022/10/04 13:13:46;;;;;;;0.90;0.80;;;25.90;44.90;;;;;;4954134;29;20066;-67
2022/10/04 13:16:35;;;;;;;0.70;0.70;;;25.90;44.30;;;;;;4878204;29;20056;-67
2022/10/04 13:19:04;;;;;;;1.30;0.77;;;26.10;44.70;;;;;;4863038;29;20052;-66
2022/10/04 13:21:52;;;;;;;0.98;0.88;;;25.90;44.10;;;;;;4877988;29;20082;-67
2022/10/04 13:24:57;;;;;;;0.60;0.60;;;25.90;44.00;;;;;;4878364;29;20119;-67
2022/10/04 13:27:42;;;;;;;0.50;0.50;;;25.80;44.00;;;;;;4896225;29;20044;-67
2022/10/04 13:30:35;;;;;;;2.67;1.00;;;25.90;43.60;;;;;;4918751;29;20044;-67
2022/10/04 13:33:22;;;;;;;;;;;25.80;40.30;;;;;;4934595;29;20094;-68
2022/10/04 13:36:12;;;;;;;0.52;0.52;;;25.80;41.80;;;;;;4933948;29;19921;-67
2022/10/04 13:38:57;;;;;;;0.80;0.80;;;25.70;41.50;;;;;;4918303;29;20757;-67
2022/10/04 13:41:26;;;;;;;0.82;0.70;;;25.80;39.90;;;;;;4918255;29;20043;-68
2022/10/04 13:44:16;;;;;;;0.52;0.52;;;25.60;39.30;;;;;;4934273;29;20036;-69
2022/10/04 13:47:16;;;;;;;1.02;0.70;;;25.90;42.40;;;;;;4918322;29;20047;-68
2022/10/04 13:49:42;;;;;;;0.60;0.60;;;26.20;41.60;;;;;;4942592;28;20063;-68
2022/10/04 13:58:37;;;;;;;2.08;0.75;;;26.00;37.40;;;;;;5013063;28;20475;-67
2022/10/04 14:02:12;;;;;;;0.73;0.73;;;26.00;42.00;;;;;;5013094;28;20037;-67
2022/10/04 14:05:21;;;;;;;0.70;0.70;;;26.10;42.30;;;;;;4974398;28;20070;-67
2022/10/04 14:08:16;;;;;;;1.48;0.68;;;26.10;38.80;;;;;;4990758;28;20081;-67
2022/10/04 14:10:54;;;;;;;3.88;0.82;;;25.90;37.40;;;;;;4932672;29;20039;-66
2022/10/04 14:13:47;;;;;;;0.68;0.55;;;25.90;42.70;;;;;;4932676;29;20083;-67
2022/10/04 14:16:35;;;;;;;0.73;0.70;;;25.90;36.00;;;;;;4932089;29;20127;-68